createdAt,value
2023-01-17T00:02:08.660Z,97456.16
2023-01-17T00:04:50.760Z,97461.75
2023-01-17T00:07:33.964Z,97466.53
2023-01-17T00:10:07.227Z,97478.09
2023-01-17T00:12:36.784Z,97473.88
2023-01-17T00:15:10.403Z,97470.47
2023-01-17T00:17:39.866Z,97475.47
2023-01-17T00:20:23.298Z,97480.31
2023-01-17T00:23:05.237Z,97478.63
2023-01-17T00:25:48.208Z,97478.63
2023-01-17T00:28:14.958Z,97485.31
2023-01-17T00:30:46.808Z,97476.34
2023-01-17T00:33:13.510Z,97483.28
2023-01-17T00:35:40.514Z,97486.41
2023-01-17T00:38:08.056Z,97496.19
2023-01-17T00:40:35.493Z,97497.31
2023-01-17T00:43:17.464Z,97496.47
2023-01-17T00:46:02.155Z,97497.28
2023-01-17T00:48:44.130Z,97493.81
2023-01-17T00:51:26.080Z,97501.81
2023-01-17T00:54:08.113Z,97510.75
2023-01-17T00:56:50.110Z,97516.69
2023-01-17T00:59:32.098Z,97520.41
2023-01-17T01:02:16.692Z,97539.25
2023-01-17T01:04:58.777Z,97531.63
2023-01-17T01:07:40.738Z,97542.72
2023-01-17T01:10:23.897Z,97560.19
2023-01-17T01:13:05.912Z,97561.84
2023-01-17T01:15:47.915Z,97573.78
2023-01-17T01:18:32.489Z,97588.53
2023-01-17T01:21:17.961Z,97581.97
2023-01-17T01:23:59.969Z,97577.09
2023-01-17T01:26:41.955Z,97594.00
2023-01-17T01:29:23.921Z,97603.38
2023-01-17T01:32:06.006Z,97617.44
2023-01-17T01:34:38.168Z,97608.25
2023-01-17T01:37:07.727Z,97611.78
2023-01-17T01:39:37.205Z,97605.28
2023-01-17T01:42:16.371Z,97600.63
2023-01-17T01:44:47.752Z,97609.81
2023-01-17T01:47:18.735Z,97607.88
2023-01-17T01:49:51.299Z,97611.41
2023-01-17T01:52:21.268Z,97611.22
2023-01-17T01:54:52.274Z,97621.63
2023-01-17T01:57:21.806Z,97627.66
2023-01-17T01:59:53.914Z,97621.44
2023-01-17T02:02:23.447Z,97628.97
2023-01-17T03:43:34.570Z,97694.16
2023-01-17T03:46:07.512Z,97693.78
2023-01-17T03:48:37.185Z,97705.03
2023-01-17T03:51:06.695Z,97686.41
2023-01-17T03:53:36.214Z,97690.94
2023-01-17T03:56:05.871Z,97690.19
2023-01-17T03:58:37.983Z,97689.78
2023-01-17T04:01:07.591Z,97696.63
2023-01-17T04:03:37.200Z,97693.88
2023-01-17T04:06:07.113Z,97693.41
2023-01-17T04:08:36.665Z,97698.28
2023-01-17T04:11:06.339Z,97700.69
2023-01-17T04:13:38.479Z,97702.88
2023-01-17T04:16:08.683Z,97709.78
2023-01-17T04:18:38.193Z,97704.13
2023-01-17T04:21:08.188Z,97707.94
2023-01-17T04:23:37.779Z,97701.88
2023-01-17T04:26:07.601Z,97703.28
2023-01-17T04:28:39.702Z,97699.72
2023-01-17T04:31:09.372Z,97701.84
2023-01-17T04:33:38.921Z,97708.59
2023-01-17T04:36:09.343Z,97700.75
2023-01-17T04:38:38.879Z,97694.38
2023-01-17T04:41:08.427Z,97695.09
2023-01-17T04:43:40.627Z,97704.06
2023-01-17T04:46:11.279Z,97700.31
2023-01-17T04:48:40.865Z,97713.16
2023-01-17T04:51:10.396Z,97709.22
2023-01-17T04:53:40.040Z,97712.19
2023-01-17T04:56:10.322Z,97712.66
2023-01-17T04:58:42.492Z,97719.69
2023-01-17T05:01:12.408Z,97723.56
2023-01-17T05:03:42.092Z,97728.09
2023-01-17T05:06:11.606Z,97726.22
2023-01-17T05:08:41.136Z,97734.34
2023-01-17T05:11:10.647Z,97736.94
2023-01-17T05:13:42.778Z,97732.31
2023-01-17T05:16:12.315Z,97729.56
2023-01-17T05:18:41.832Z,97731.72
2023-01-17T05:21:11.322Z,97736.34
2023-01-17T05:23:42.697Z,97739.81
2023-01-17T05:26:12.215Z,97743.16
2023-01-17T05:28:44.349Z,97740.97
2023-01-17T05:31:13.969Z,97738.31
2023-01-17T05:33:43.501Z,97734.69
2023-01-17T05:36:13.015Z,97733.16
2023-01-17T05:38:42.529Z,97729.97
2023-01-17T05:41:12.097Z,97731.78
2023-01-17T05:43:44.517Z,97734.25
2023-01-17T05:46:16.200Z,97738.03
2023-01-17T05:48:45.832Z,97737.91
2023-01-17T05:51:15.339Z,97741.34
2023-01-17T05:53:44.915Z,97740.63
2023-01-17T05:56:14.487Z,97744.66
2023-01-17T05:58:46.601Z,97743.56
2023-01-17T06:01:16.308Z,97737.78
2023-01-17T06:03:45.828Z,97742.94
2023-01-17T06:06:15.449Z,97741.78
2023-01-17T06:08:44.995Z,97740.63
2023-01-17T06:11:14.548Z,97745.84
2023-01-17T06:13:46.671Z,97745.72
2023-01-17T06:16:16.238Z,97758.09
2023-01-17T06:18:45.760Z,97756.16
2023-01-17T06:21:15.272Z,97761.53
2023-01-17T06:23:44.785Z,97771.09
2023-01-17T06:26:14.345Z,97767.59
2023-01-17T06:28:47.091Z,97766.28
2023-01-17T06:31:16.682Z,97763.13
2023-01-17T06:33:46.216Z,97767.56
2023-01-17T06:36:15.725Z,97780.03
2023-01-17T06:38:45.253Z,97778.50
2023-01-17T06:41:14.784Z,97774.31
2023-01-17T06:43:47.243Z,97782.44
2023-01-17T06:46:16.840Z,97778.16
2023-01-17T06:48:48.357Z,97781.00
2023-01-17T06:51:18.137Z,97771.63
2023-01-17T06:53:47.640Z,97770.19
2023-01-17T06:56:17.286Z,97773.66
2023-01-17T06:58:51.613Z,97776.44
2023-01-17T07:01:21.313Z,97772.28
2023-01-17T07:03:52.538Z,97773.09
2023-01-17T07:06:23.854Z,97767.22
2023-01-17T07:08:53.404Z,97773.59
2023-01-17T07:11:23.010Z,97778.63
2023-01-17T07:13:55.119Z,97778.16
2023-01-17T07:16:24.694Z,97777.13
2023-01-17T07:18:54.898Z,97773.16
2023-01-17T07:21:24.447Z,97770.53
2023-01-17T07:23:53.940Z,97763.66
2023-01-17T07:26:23.473Z,97772.28
2023-01-17T07:28:55.595Z,97767.88
2023-01-17T07:31:25.194Z,97775.03
2023-01-17T07:33:54.821Z,97770.53
2023-01-17T07:36:24.431Z,97768.16
2023-01-17T07:38:53.944Z,97764.59
2023-01-17T07:41:23.473Z,97770.38
2023-01-17T07:43:56.484Z,97760.91
2023-01-17T07:46:26.124Z,97759.16
2023-01-17T07:48:55.803Z,97756.47
2023-01-17T07:51:25.368Z,97753.34
2023-01-17T07:53:55.077Z,97745.78
2023-01-17T07:56:24.610Z,97733.69
2023-01-17T07:58:56.718Z,97743.19
2023-01-17T08:01:26.358Z,97741.91
2023-01-17T08:03:55.931Z,97737.81
2023-01-17T08:06:26.647Z,97743.53
2023-01-17T08:08:58.991Z,97743.53
2023-01-17T08:11:28.676Z,97744.47
2023-01-17T08:14:00.818Z,97745.78
2023-01-17T08:16:30.774Z,97739.44
2023-01-17T08:19:00.299Z,97741.88
2023-01-17T08:21:30.128Z,97745.13
2023-01-17T08:23:59.620Z,97737.28
2023-01-17T08:26:29.187Z,97740.53
2023-01-17T08:29:02.539Z,97726.03
2023-01-17T08:31:33.119Z,97722.94
2023-01-17T08:34:02.663Z,97720.63
2023-01-17T08:36:32.264Z,97722.78
2023-01-17T08:39:01.883Z,97724.63
2023-01-17T08:41:32.279Z,97731.69
2023-01-17T08:44:04.669Z,97730.38
2023-01-17T08:46:34.188Z,97724.25
2023-01-17T08:49:03.715Z,97721.88
2023-01-17T08:51:33.555Z,97725.06
2023-01-17T08:54:03.071Z,97725.78
2023-01-17T08:56:32.651Z,97718.03
2023-01-17T08:59:05.541Z,97712.84
2023-01-17T09:01:42.070Z,97722.72
2023-01-17T09:04:12.420Z,97723.69
2023-01-17T09:06:42.717Z,97725.06
2023-01-17T09:09:13.803Z,97721.53
2023-01-17T09:11:43.055Z,97728.25
2023-01-17T09:14:17.041Z,97722.34
2023-01-17T09:16:46.430Z,97727.81
2023-01-17T09:19:15.750Z,97733.03
2023-01-17T09:21:44.984Z,97736.03
2023-01-17T09:24:14.351Z,97735.91
2023-01-17T09:26:43.661Z,97730.88
2023-01-17T09:29:14.071Z,97723.31
2023-01-17T09:31:47.220Z,97729.59
2023-01-17T09:34:18.652Z,97729.13
2023-01-17T09:36:47.981Z,97724.00
2023-01-17T09:39:17.372Z,97737.91
2023-01-17T09:41:48.597Z,97733.41
2023-01-17T09:44:20.987Z,97738.69
2023-01-17T09:46:53.072Z,97751.53
2023-01-17T09:49:25.012Z,97744.88
2023-01-17T09:51:54.301Z,97750.78
2023-01-17T09:54:24.349Z,97745.59
2023-01-17T09:56:55.820Z,97748.41
2023-01-17T09:59:33.235Z,97742.06
2023-01-17T10:02:09.416Z,97739.13
2023-01-17T10:04:45.697Z,97738.31
2023-01-17T10:07:17.567Z,97738.88
2023-01-17T10:10:01.779Z,97732.13
2023-01-17T10:12:32.810Z,97737.66
2023-01-17T10:15:10.611Z,97738.75
2023-01-17T10:17:46.652Z,97747.09
2023-01-17T10:20:20.930Z,97742.06
2023-01-17T10:22:57.713Z,97734.59
2023-01-17T10:25:51.346Z,97735.47
2023-01-17T10:28:21.464Z,97745.31
2023-01-17T10:30:54.016Z,97737.72
2023-01-17T10:33:27.228Z,97738.59
2023-01-17T10:35:57.541Z,97742.94
2023-01-17T10:38:28.382Z,97733.34
2023-01-17T10:40:57.995Z,97734.13
2023-01-17T10:43:27.755Z,97738.72
2023-01-17T10:45:57.353Z,97731.47
2023-01-17T10:48:36.375Z,97737.09
2023-01-17T10:51:08.025Z,97740.09
2023-01-17T10:53:40.953Z,97731.66
2023-01-17T10:56:10.320Z,97740.59
2023-01-17T10:58:39.691Z,97741.59
2023-01-17T11:01:10.342Z,97733.53
2023-01-17T11:03:44.315Z,97718.63
2023-01-17T11:06:20.586Z,97719.84
2023-01-17T11:08:53.655Z,97713.16
2023-01-17T11:11:23.081Z,97707.84
2023-01-17T11:13:52.380Z,97701.84
2023-01-17T11:16:22.810Z,97706.50
2023-01-17T11:19:06.606Z,97713.50
2023-01-17T11:21:35.904Z,97719.38
2023-01-17T11:24:11.703Z,97715.47
2023-01-17T11:26:41.353Z,97714.38
2023-01-17T11:29:17.339Z,97718.63
2023-01-17T11:31:46.657Z,97710.53
2023-01-17T11:34:20.008Z,97703.22
2023-01-17T11:36:49.361Z,97703.88
2023-01-17T11:39:27.734Z,97692.75
2023-01-17T11:41:57.158Z,97688.69
2023-01-17T11:44:26.998Z,97682.75
2023-01-17T11:47:12.333Z,97685.84
2023-01-17T11:49:44.709Z,97675.53
2023-01-17T11:52:14.363Z,97672.72
2023-01-17T11:54:43.803Z,97666.53
2023-01-17T11:57:19.492Z,97671.41
2023-01-17T11:59:48.813Z,97661.78
2023-01-17T12:02:32.236Z,97658.34
2023-01-17T12:05:06.947Z,97652.72
2023-01-17T12:07:36.775Z,97658.47
2023-01-17T12:10:08.032Z,97646.91
2023-01-17T12:12:53.206Z,97646.22
2023-01-17T12:15:26.227Z,97643.69
2023-01-17T12:18:16.452Z,97645.34
2023-01-17T12:20:50.921Z,97637.31
2023-01-17T12:23:29.619Z,97632.69
2023-01-17T12:26:01.973Z,97623.88
2023-01-17T12:28:39.030Z,97615.03
2023-01-17T12:31:11.397Z,97614.97
2023-01-17T12:33:41.769Z,97621.72
2023-01-17T12:36:17.700Z,97620.00
2023-01-17T12:38:47.309Z,97616.78
2023-01-17T12:41:17.025Z,97621.16
2023-01-17T12:43:46.651Z,97614.66
2023-01-17T12:46:20.980Z,97617.44
2023-01-17T12:48:50.488Z,97618.31
2023-01-17T12:51:24.296Z,97610.81
2023-01-17T12:53:56.615Z,97613.06
2023-01-17T12:56:27.395Z,97615.59
2023-01-17T12:58:57.497Z,97608.06
2023-01-17T13:01:27.148Z,97606.38
2023-01-17T13:04:00.315Z,97605.06
2023-01-17T13:06:34.636Z,97604.03
2023-01-17T13:09:03.959Z,97601.28
2023-01-17T13:11:33.875Z,97594.44
2023-01-17T13:14:03.243Z,97594.06
2023-01-17T13:16:33.712Z,97593.88
2023-01-17T13:19:04.590Z,97597.06
2023-01-17T13:21:36.548Z,97594.75
2023-01-17T13:24:12.261Z,97591.44
2023-01-17T13:26:45.993Z,97593.25
2023-01-17T13:29:17.551Z,97590.66
2023-01-17T13:31:50.871Z,97594.34
2023-01-17T13:34:24.681Z,97585.69
2023-01-17T13:37:04.691Z,97583.25
2023-01-17T13:39:51.623Z,97581.53
2023-01-17T13:42:24.120Z,97588.06
2023-01-17T13:44:53.463Z,97583.81
2023-01-17T13:47:38.889Z,97586.81
2023-01-17T13:50:08.407Z,97595.03
2023-01-17T13:52:40.351Z,97603.44
2023-01-17T13:55:09.849Z,97598.88
2023-01-17T13:57:43.869Z,97596.94
2023-01-17T14:00:28.363Z,97599.06
2023-01-17T14:02:57.700Z,97593.53
2023-01-17T14:05:32.797Z,97597.41
2023-01-17T14:08:04.914Z,97601.69
2023-01-17T14:10:35.938Z,97590.59
2023-01-17T14:13:05.493Z,97586.19
2023-01-17T14:15:35.124Z,97589.91
2023-01-17T14:18:04.523Z,97586.22
2023-01-17T14:20:45.209Z,97580.56
2023-01-17T14:23:27.030Z,97578.06
2023-01-17T14:25:56.380Z,97579.72
2023-01-17T14:28:26.999Z,97570.28
2023-01-17T14:30:56.995Z,97575.09
2023-01-17T14:33:28.862Z,97577.34
2023-01-17T14:35:59.187Z,97578.56
2023-01-17T14:38:31.738Z,97578.16
2023-01-17T14:41:01.574Z,97581.59
2023-01-17T14:43:33.116Z,97581.59
2023-01-17T14:46:03.569Z,97575.22
2023-01-17T14:48:32.852Z,97569.19
2023-01-17T14:51:02.401Z,97566.78
2023-01-17T14:53:34.394Z,97569.25
2023-01-17T14:56:03.949Z,97583.38
2023-01-17T14:58:33.713Z,97579.81
2023-01-17T15:01:03.717Z,97585.31
2023-01-17T15:03:34.634Z,97590.56
2023-01-17T15:06:06.097Z,97592.97
2023-01-17T15:08:38.119Z,97605.03
2023-01-17T15:11:08.035Z,97610.75
2023-01-17T15:13:44.214Z,97607.56
2023-01-17T15:16:20.164Z,97611.16
2023-01-17T15:18:49.743Z,97608.63
2023-01-17T15:21:19.605Z,97605.50
2023-01-17T15:23:51.972Z,97611.28
2023-01-17T15:26:22.519Z,97603.03
2023-01-17T15:28:51.836Z,97613.78
2023-01-17T15:31:22.199Z,97603.84
2023-01-17T15:33:51.968Z,97601.97
2023-01-17T15:36:30.185Z,97603.88
2023-01-17T15:39:02.596Z,97603.97
2023-01-17T15:41:33.235Z,97599.72
2023-01-17T15:44:02.526Z,97602.16
2023-01-17T15:46:33.020Z,97596.81
2023-01-17T15:49:09.893Z,97596.59
2023-01-17T15:51:41.663Z,97603.88
2023-01-17T15:54:26.003Z,97594.19
2023-01-17T15:57:18.597Z,97592.84
2023-01-17T15:59:48.278Z,97595.94
2023-01-17T16:02:28.086Z,97594.56
2023-01-17T16:04:57.545Z,97594.03
2023-01-17T16:07:30.546Z,97599.94
2023-01-17T16:10:04.279Z,97603.59
2023-01-17T16:12:36.235Z,97608.53
2023-01-17T16:15:12.920Z,97610.69
2023-01-17T16:17:43.170Z,97613.44
2023-01-17T16:20:16.124Z,97617.06
2023-01-17T16:22:45.965Z,97615.47
2023-01-17T16:25:15.919Z,97619.94
2023-01-17T16:27:48.213Z,97613.91
2023-01-17T16:30:18.352Z,97621.09
2023-01-17T16:32:48.589Z,97617.41
2023-01-17T16:35:20.940Z,97621.44
2023-01-17T16:37:51.535Z,97625.91
2023-01-17T16:40:21.411Z,97617.03
2023-01-17T16:42:53.323Z,97619.78
2023-01-17T16:45:23.564Z,97626.41
2023-01-17T16:47:53.391Z,97622.34
2023-01-17T16:50:23.927Z,97615.78
2023-01-17T16:52:53.266Z,97615.66
2023-01-17T16:55:23.763Z,97616.22
2023-01-17T16:57:55.817Z,97621.34
2023-01-17T17:00:26.854Z,97620.53
2023-01-17T17:02:56.311Z,97621.78
2023-01-17T17:05:26.083Z,97619.69
2023-01-17T17:07:56.206Z,97622.16
2023-01-17T17:10:27.651Z,97611.47
2023-01-17T17:13:02.800Z,97617.84
2023-01-17T17:15:32.231Z,97614.47
2023-01-17T17:18:01.756Z,97619.47
2023-01-17T17:20:31.089Z,97616.59
2023-01-17T17:23:00.371Z,97612.19
2023-01-17T17:25:29.789Z,97612.09
2023-01-17T17:28:05.169Z,97619.50
2023-01-17T17:30:36.165Z,97618.16
2023-01-17T17:33:06.469Z,97621.44
2023-01-17T17:35:36.307Z,97622.31
2023-01-17T17:38:06.761Z,97625.25
2023-01-17T17:40:36.870Z,97625.34
2023-01-17T17:43:08.813Z,97622.16
2023-01-17T17:45:43.294Z,97627.69
2023-01-17T17:48:12.643Z,97619.03
2023-01-17T17:50:43.251Z,97623.16
2023-01-17T17:53:12.629Z,97634.78
2023-01-17T17:55:44.533Z,97628.78
2023-01-17T17:58:26.816Z,97628.44
2023-01-17T18:00:56.547Z,97637.22
2023-01-17T18:03:26.255Z,97641.72
2023-01-17T18:06:00.603Z,97636.75
2023-01-17T18:08:41.012Z,97634.13
2023-01-17T18:11:17.052Z,97629.69
2023-01-17T18:13:51.858Z,97645.38
2023-01-17T18:16:25.037Z,97637.38
2023-01-17T18:19:00.500Z,97641.69
2023-01-17T18:21:30.299Z,97649.25
2023-01-17T18:24:06.594Z,97649.31
2023-01-17T18:26:40.690Z,97656.22
2023-01-17T18:29:14.849Z,97662.31
2023-01-17T18:31:44.668Z,97658.59
2023-01-17T18:34:14.746Z,97668.41
2023-01-17T18:36:44.407Z,97674.72
2023-01-17T18:39:13.937Z,97673.00
2023-01-17T18:41:43.244Z,97672.53
2023-01-17T18:44:15.203Z,97674.47
2023-01-17T18:46:44.624Z,97680.94
2023-01-17T18:49:15.489Z,97676.25
2023-01-17T18:51:47.695Z,97683.97
2023-01-17T18:54:17.408Z,97693.28
2023-01-17T18:56:49.588Z,97694.16
2023-01-17T18:59:23.592Z,97697.19
2023-01-17T19:01:53.196Z,97697.34
2023-01-17T19:04:22.643Z,97707.56
2023-01-17T19:06:51.950Z,97705.31
2023-01-17T19:09:22.419Z,97705.91
2023-01-17T19:11:51.773Z,97710.88
2023-01-17T19:14:23.833Z,97712.28
2023-01-17T19:16:53.264Z,97715.63
2023-01-17T19:19:25.478Z,97712.91
2023-01-17T19:21:54.854Z,97714.25
2023-01-17T19:24:24.158Z,97721.13
2023-01-17T19:26:54.204Z,97727.72
2023-01-17T19:29:27.194Z,97725.34
2023-01-17T19:31:57.763Z,97727.19
2023-01-17T19:34:29.514Z,97726.25
2023-01-17T19:36:58.869Z,97728.44
2023-01-17T19:39:30.587Z,97726.34
2023-01-17T19:41:59.881Z,97739.97
2023-01-17T19:44:32.997Z,97736.41
2023-01-17T19:47:04.115Z,97734.56
2023-01-17T19:49:35.992Z,97745.03
2023-01-17T19:52:05.284Z,97744.69
2023-01-17T19:54:34.586Z,97751.06
2023-01-17T19:57:03.936Z,97748.59
2023-01-17T19:59:35.874Z,97748.47
2023-01-17T20:02:05.620Z,97751.13
2023-01-17T20:04:39.944Z,97747.75
2023-01-17T20:07:14.468Z,97742.88
2023-01-17T20:09:43.905Z,97743.03
2023-01-17T20:12:25.326Z,97745.03
2023-01-17T20:15:00.779Z,97750.06
2023-01-17T20:17:34.786Z,97742.94
2023-01-17T20:20:12.917Z,97747.56
2023-01-17T20:22:44.095Z,97743.97
2023-01-17T20:25:16.498Z,97746.06
2023-01-17T20:27:48.605Z,97744.47
2023-01-17T20:30:24.677Z,97752.66
2023-01-17T20:32:55.848Z,97755.84
2023-01-17T20:35:25.344Z,97756.53
2023-01-17T20:37:54.968Z,97751.97
2023-01-17T20:40:24.669Z,97757.28
2023-01-17T20:42:54.072Z,97755.06
2023-01-17T20:45:26.210Z,97754.81
2023-01-17T20:47:56.184Z,97754.16
2023-01-17T20:50:25.781Z,97763.94
2023-01-17T20:52:55.160Z,97757.34
2023-01-17T20:55:24.673Z,97753.69
2023-01-17T20:57:54.272Z,97756.31
2023-01-17T21:00:26.751Z,97747.56
2023-01-17T21:02:56.240Z,97749.34
2023-01-17T21:05:25.617Z,97749.97
2023-01-17T21:07:55.388Z,97750.06
2023-01-17T21:10:25.053Z,97754.44
2023-01-17T21:12:54.615Z,97759.88
2023-01-17T21:15:27.110Z,97755.28
2023-01-17T21:18:05.242Z,97761.09
2023-01-17T21:20:36.481Z,97760.97
2023-01-17T21:23:08.684Z,97760.28
2023-01-17T21:25:38.060Z,97763.22
2023-01-17T21:28:08.042Z,97758.06
2023-01-17T21:30:40.181Z,97762.41
2023-01-17T21:33:09.540Z,97762.66
2023-01-17T21:35:38.806Z,97762.28
2023-01-17T21:38:08.284Z,97757.19
2023-01-17T21:40:42.664Z,97759.38
2023-01-17T21:43:12.399Z,97762.28
2023-01-17T21:45:44.689Z,97754.84
2023-01-17T21:48:14.968Z,97759.28
2023-01-17T21:50:52.631Z,97771.50
2023-01-17T21:53:21.974Z,97762.78
2023-01-17T21:56:06.572Z,97759.56
2023-01-17T21:58:49.307Z,97765.72
2023-01-17T22:01:22.673Z,97766.75
2023-01-17T22:03:52.545Z,97766.38
2023-01-17T22:06:22.156Z,97763.88
2023-01-17T22:08:51.435Z,97755.16
2023-01-17T22:11:21.201Z,97759.19
2023-01-17T22:13:50.489Z,97769.63
2023-01-17T22:16:26.100Z,97770.91
2023-01-17T22:18:55.498Z,97770.91
2023-01-17T22:21:25.504Z,97760.16
2023-01-17T22:23:55.180Z,97763.63
2023-01-17T22:26:24.988Z,97769.44
2023-01-17T22:28:54.765Z,97770.28
2023-01-17T22:31:30.092Z,97767.03
2023-01-17T22:34:03.103Z,97769.56
2023-01-17T22:36:32.517Z,97767.53
2023-01-17T22:39:06.211Z,97773.19
2023-01-17T22:41:35.739Z,97768.94
2023-01-17T22:44:05.593Z,97769.00
2023-01-17T22:46:39.324Z,97765.81
2023-01-17T22:49:08.728Z,97765.81
2023-01-17T22:51:38.956Z,97764.00
2023-01-17T22:54:11.592Z,97766.59
2023-01-17T22:56:40.905Z,97770.44
2023-01-17T22:59:11.798Z,97763.44
2023-01-17T23:01:43.717Z,97763.66
2023-01-17T23:04:20.074Z,97768.72
2023-01-17T23:06:59.743Z,97763.38
2023-01-17T23:09:29.265Z,97770.38
2023-01-17T23:11:58.757Z,97765.31
2023-01-17T23:14:28.336Z,97768.25
2023-01-17T23:17:13.064Z,97774.94
2023-01-17T23:19:42.781Z,97773.66
2023-01-17T23:22:15.881Z,97771.22
2023-01-17T23:24:47.077Z,97770.91
2023-01-17T23:27:29.370Z,97774.72
2023-01-17T23:30:01.681Z,97784.44
2023-01-17T23:32:33.616Z,97783.97
2023-01-17T23:35:02.971Z,97774.38
2023-01-17T23:37:44.555Z,97773.13
2023-01-17T23:40:14.653Z,97774.66
2023-01-17T23:42:56.678Z,97774.66
2023-01-17T23:45:26.168Z,97776.72
2023-01-17T23:47:58.124Z,97777.09
2023-01-17T23:50:27.463Z,97780.78
2023-01-17T23:52:57.212Z,97774.25
2023-01-17T23:55:26.700Z,97779.31
2023-01-17T23:57:56.109Z,97772.81
